Airfield :
LOGIN :

Register | Disclaimer

   EN    FR    IT 

 










Legend :    VFR   Marginal VFR   IFR   Intensive IFR   Very Intensive IFR
Visi :
Ceiling :
>= 8 km
>= 3000ft
5 to 8 km
1000 to 3000 ft
1500m to 5 km
500 to 1000 ft
800 to 1500m
200 to 500 ft
< 800m
< 200 ft
Symbols :   Thunderstorms  Fog  Heavy snow  Heavy precipitations  Wind > 20 kt
SIGMETs :     Misc.  Thunderstorms  Icing  Turbulence  Mountain Waves  Volcanic Ashes






- Airport Elevation : 219 ft
- IATA code : DNR


LFRD - Dinard

CURRENT METAR :
  • 070800Z AUTO 34013KT 9999 BKN011 BKN035 18/15 Q1029 NOSIG

EXPIRED METARs :
  • 070730Z AUTO 35012KT 9999 BKN010 18/15 Q1029 NOSIG
  • 070700Z AUTO 34011KT 9999 BKN009 18/15 Q1029 BECMG BKN012
  • 070630Z AUTO 34010KT 9999 OVC008 17/15 Q1028 BECMG BKN012
  • 070600Z AUTO 33010KT 300V360 9999 OVC007 17/16 Q1028 TEMPO BKN003
  • 070530Z AUTO 32009KT 9999 OVC006 16/15 Q1028 TEMPO BKN003

TAF TAF LFRD
Valid from the 07 at 06:00 until the 08 at 06:00 UTC


070500Z 0706/0806 32010KT 9999 BKN007
TEMPO 0706/0708 BKN003
BECMG 0708/0710 BKN012
BECMG 0710/0712 SCT020
PROB30
TEMPO 0714/0718 34015G25KT
BECMG 0722/0724 03010KT
BECMG 0802/0804 VRB05KT
PROB40
TEMPO 0802/0806 2000 BR
PROB30
TEMPO 0804/0806 0500 FG
ATIS : +33 2 99 16 81 50



MET'MAP, your aeronautical weather chart ! - Copyright ORBIFLY December 2007 - Disclaimer

ORBIFLY MET'MAP TEAM :

Programming & Development : Alexandra Zaïnal
Original concept : Baudouin d'Aumeries
Technical & hardware support : Manuel Goepfert
Assistance : Marc-Olivier Méhu




SOURCES & CREDITS :

   NOAA